createdAt,value
2024-02-11T00:01:45.268Z,11.40
2024-02-11T00:06:48.566Z,11.40
2024-02-11T00:11:54.582Z,11.40
2024-02-11T00:17:01.033Z,11.30
2024-02-11T00:22:04.812Z,11.30
2024-02-11T00:27:10.428Z,11.30
2024-02-11T00:32:14.010Z,11.20
2024-02-11T00:37:17.328Z,11.20
2024-02-11T00:42:20.836Z,11.20
2024-02-11T00:47:24.439Z,11.20
2024-02-11T00:52:27.925Z,11.10
2024-02-11T00:57:31.789Z,11.10
2024-02-11T01:02:35.906Z,11.10
2024-02-11T01:07:41.765Z,11.10
2024-02-11T01:12:46.431Z,11.00
2024-02-11T01:17:52.932Z,11.00
2024-02-11T01:22:56.532Z,11.00
2024-02-11T01:27:59.945Z,11.00
2024-02-11T01:33:05.909Z,10.90
2024-02-11T01:38:11.032Z,10.90
2024-02-11T01:43:14.388Z,10.90
2024-02-11T01:48:18.398Z,10.80
2024-02-11T01:53:23.049Z,10.80
2024-02-11T01:58:26.527Z,10.80
2024-02-11T02:03:29.871Z,10.80
2024-02-11T02:08:33.417Z,10.70
2024-02-11T02:13:38.501Z,10.80
2024-02-11T02:18:46.945Z,10.70
2024-02-11T02:23:50.961Z,10.70
2024-02-11T02:28:54.529Z,10.70
2024-02-11T02:33:58.161Z,10.60
2024-02-11T02:39:03.772Z,10.60
2024-02-11T02:44:07.605Z,10.50
2024-02-11T02:49:13.636Z,10.50
2024-02-11T02:54:17.131Z,10.50
2024-02-11T02:59:20.622Z,10.50
2024-02-11T03:04:27.655Z,10.50
2024-02-11T03:09:31.033Z,10.50
2024-02-11T03:14:34.784Z,10.50
2024-02-11T03:19:38.602Z,10.50
2024-02-11T03:24:42.948Z,10.50
2024-02-11T03:29:46.353Z,10.50
2024-02-11T03:34:49.796Z,10.50
2024-02-11T03:39:53.172Z,10.60
2024-02-11T03:44:56.530Z,10.50
2024-02-11T03:50:00.240Z,10.50
2024-02-11T03:55:09.725Z,10.50
2024-02-11T04:00:19.481Z,10.50
2024-02-11T04:05:26.614Z,10.50
2024-02-11T04:10:30.605Z,10.40
2024-02-11T04:15:36.894Z,10.40
2024-02-11T04:20:41.626Z,10.40
2024-02-11T04:25:46.602Z,10.30
2024-02-11T04:30:50.082Z,10.30
2024-02-11T04:35:54.469Z,10.20
2024-02-11T04:41:02.192Z,10.20
2024-02-11T04:46:06.457Z,10.20
2024-02-11T04:51:10.814Z,10.10
2024-02-11T04:56:17.322Z,10.10
2024-02-11T05:01:22.049Z,10.10
2024-02-11T05:06:26.215Z,10.10
2024-02-11T05:11:29.821Z,10.10
2024-02-11T05:16:35.983Z,10.10
2024-02-11T05:21:41.327Z,10.10
2024-02-11T05:26:47.661Z,10.10
2024-02-11T05:31:51.569Z,10.00
2024-02-11T05:36:56.977Z,10.00
2024-02-11T05:42:01.116Z,10.00
2024-02-11T05:47:05.361Z,10.00
2024-02-11T05:52:11.119Z,10.00
2024-02-11T05:57:15.085Z,10.00
2024-02-11T06:02:18.528Z,10.00
2024-02-11T06:07:21.988Z,10.00
2024-02-11T06:12:27.468Z,10.00
2024-02-11T06:17:33.500Z,10.00
2024-02-11T06:22:37.792Z,10.00
2024-02-11T06:27:42.174Z,10.00
2024-02-11T06:32:55.689Z,10.00
2024-02-11T06:38:01.053Z,10.00
2024-02-11T06:43:12.304Z,10.00
2024-02-11T06:48:16.108Z,10.10
2024-02-11T06:53:19.568Z,10.20
2024-02-11T06:58:23.031Z,10.30
2024-02-11T07:03:26.584Z,10.30
2024-02-11T07:08:30.234Z,10.30
2024-02-11T07:13:35.088Z,10.30
2024-02-11T07:18:39.112Z,10.40
2024-02-11T07:23:42.445Z,10.40
2024-02-11T07:28:49.488Z,10.50
2024-02-11T07:33:53.240Z,10.50
2024-02-11T07:38:57.109Z,10.50
2024-02-11T07:44:03.123Z,10.50
2024-02-11T07:49:06.674Z,10.60
2024-02-11T07:54:10.635Z,10.60
2024-02-11T07:59:14.371Z,10.60
2024-02-11T08:04:18.385Z,10.70
2024-02-11T08:09:21.838Z,10.80
2024-02-11T08:14:25.410Z,10.80
2024-02-11T08:19:32.154Z,11.00
2024-02-11T08:24:36.747Z,11.10
2024-02-11T08:29:40.285Z,11.20
2024-02-11T08:34:43.774Z,11.20
2024-02-11T08:39:48.712Z,11.20
2024-02-11T08:44:52.423Z,11.20
2024-02-11T08:49:56.587Z,11.10
2024-02-11T08:55:00.285Z,11.10
2024-02-11T09:00:08.212Z,11.00
2024-02-11T09:05:13.537Z,10.90
2024-02-11T09:10:17.173Z,10.90
2024-02-11T09:15:21.540Z,11.00
2024-02-11T09:20:25.034Z,11.00
2024-02-11T09:25:30.235Z,11.00
2024-02-11T09:30:33.691Z,11.00
2024-02-11T09:35:39.076Z,11.00
2024-02-11T09:40:44.750Z,11.00
2024-02-11T09:45:52.473Z,10.90
2024-02-11T09:50:58.875Z,10.90
2024-02-11T09:56:02.318Z,10.90
2024-02-11T10:01:06.661Z,10.90
2024-02-11T10:06:12.442Z,10.90
2024-02-11T10:11:18.882Z,10.90
2024-02-11T10:16:22.260Z,10.90
2024-02-11T10:21:27.226Z,11.00
2024-02-11T10:26:35.095Z,11.00
2024-02-11T10:31:38.708Z,11.00
2024-02-11T10:36:42.400Z,11.10
2024-02-11T10:41:46.201Z,11.30
2024-02-11T10:46:49.412Z,11.40
2024-02-11T10:51:57.587Z,11.50
2024-02-11T10:57:07.792Z,11.70
2024-02-11T11:02:14.648Z,11.70
2024-02-11T11:07:21.329Z,11.70
2024-02-11T11:12:26.040Z,11.70
2024-02-11T11:17:29.333Z,11.80
2024-02-11T11:22:34.598Z,11.80
2024-02-11T11:27:38.600Z,11.90
2024-02-11T11:32:47.783Z,12.00
2024-02-11T11:37:51.519Z,12.00
2024-02-11T11:42:55.773Z,12.10
2024-02-11T11:48:00.560Z,12.10
2024-02-11T11:53:04.523Z,12.00
2024-02-11T11:58:08.112Z,11.90
2024-02-11T12:03:11.833Z,11.80
2024-02-11T12:08:18.487Z,11.80
2024-02-11T12:13:25.097Z,11.80
2024-02-11T12:18:28.910Z,11.70
2024-02-11T12:23:33.039Z,11.60
2024-02-11T12:28:39.202Z,11.60
2024-02-11T12:33:48.641Z,11.60
2024-02-11T12:38:54.937Z,11.50
2024-02-11T12:43:58.618Z,11.50
2024-02-11T12:49:03.525Z,11.50
2024-02-11T12:54:07.262Z,11.50
2024-02-11T12:59:11.889Z,11.60
2024-02-11T13:04:16.255Z,11.60
2024-02-11T13:09:19.934Z,11.70
2024-02-11T13:14:23.841Z,11.70
2024-02-11T13:19:27.380Z,11.70
2024-02-11T13:24:30.893Z,11.80
2024-02-11T13:29:36.125Z,11.80
2024-02-11T13:34:39.897Z,11.90
2024-02-11T13:39:43.457Z,12.00
2024-02-11T13:44:48.743Z,12.10
2024-02-11T13:49:52.210Z,12.20
2024-02-11T13:54:55.531Z,12.20
2024-02-11T13:59:59.682Z,12.20
2024-02-11T14:05:05.104Z,12.10
2024-02-11T14:10:09.529Z,12.00
2024-02-11T14:15:15.198Z,12.00
2024-02-11T14:20:18.774Z,12.00
2024-02-11T14:25:22.405Z,12.00
2024-02-11T14:30:27.962Z,12.00
2024-02-11T14:35:31.669Z,12.10
2024-02-11T14:40:36.683Z,12.20
2024-02-11T14:45:40.360Z,12.30
2024-02-11T14:50:44.469Z,12.30
2024-02-11T14:55:48.299Z,12.30
2024-02-11T15:00:52.013Z,12.40
2024-02-11T15:05:56.026Z,12.40
2024-02-11T15:11:00.136Z,12.40
2024-02-11T15:16:05.830Z,12.40
2024-02-11T15:21:10.590Z,12.30
2024-02-11T15:26:15.796Z,12.30
2024-02-11T15:31:19.379Z,12.30
2024-02-11T15:36:23.138Z,12.20
2024-02-11T15:41:26.897Z,12.20
2024-02-11T15:46:30.514Z,12.20
2024-02-11T15:51:34.288Z,12.20
2024-02-11T15:56:38.131Z,12.10
2024-02-11T16:01:44.021Z,12.10
2024-02-11T16:06:47.478Z,12.10
2024-02-11T16:11:53.817Z,12.10
2024-02-11T16:16:58.249Z,12.10
2024-02-11T16:22:04.048Z,12.10
2024-02-11T16:27:11.196Z,12.00
2024-02-11T16:32:14.742Z,12.00
2024-02-11T16:37:19.186Z,12.10
2024-02-11T16:42:22.499Z,12.00
2024-02-11T16:47:26.057Z,12.00
2024-02-11T16:52:30.322Z,11.90
2024-02-11T16:57:33.940Z,11.90
2024-02-11T17:02:37.773Z,11.90
2024-02-11T17:07:41.352Z,11.90
2024-02-11T17:12:46.350Z,11.90
2024-02-11T17:17:50.590Z,11.90
2024-02-11T17:22:55.284Z,11.90
2024-02-11T17:27:59.187Z,11.80
2024-02-11T17:33:03.131Z,11.90
2024-02-11T17:38:10.041Z,11.80
2024-02-11T17:43:16.841Z,11.80
2024-02-11T17:48:20.537Z,11.80
2024-02-11T17:53:28.200Z,11.80
2024-02-11T17:58:38.818Z,11.80
2024-02-11T18:03:42.173Z,11.70
2024-02-11T18:08:45.659Z,11.80
2024-02-11T18:13:49.783Z,11.70
2024-02-11T18:18:54.151Z,11.70
2024-02-11T18:23:59.193Z,11.70
2024-02-11T18:29:04.136Z,11.70
2024-02-11T18:34:09.570Z,11.70
2024-02-11T18:39:15.739Z,11.70
2024-02-11T18:44:19.208Z,11.60
2024-02-11T18:49:22.752Z,11.10
2024-02-11T18:54:26.300Z,10.60
2024-02-11T18:59:29.725Z,10.30
2024-02-11T19:04:34.535Z,9.90
2024-02-11T19:09:45.115Z,9.60
2024-02-11T19:14:48.439Z,9.40
2024-02-11T19:19:51.987Z,9.10
2024-02-11T19:24:55.618Z,9.00
2024-02-11T19:29:59.114Z,8.90
2024-02-11T19:35:03.477Z,8.80
2024-02-11T19:40:12.292Z,8.70
2024-02-11T19:45:17.283Z,8.70
2024-02-11T19:50:20.719Z,8.70
2024-02-11T19:55:27.501Z,8.70
2024-02-11T20:00:31.077Z,8.60
2024-02-11T20:05:38.946Z,8.60
2024-02-11T20:10:45.295Z,8.60
2024-02-11T20:15:49.149Z,8.60
2024-02-11T20:20:56.498Z,8.60
2024-02-11T20:25:59.800Z,8.60
2024-02-11T20:31:03.636Z,8.60
2024-02-11T20:36:12.415Z,8.70
2024-02-11T20:41:20.579Z,8.70
2024-02-11T20:46:24.401Z,8.70
2024-02-11T20:51:32.066Z,8.60
2024-02-11T20:56:36.039Z,8.60
2024-02-11T21:01:39.562Z,8.60
2024-02-11T21:06:45.597Z,8.60
2024-02-11T21:11:48.844Z,8.50
2024-02-11T21:16:52.948Z,8.50
2024-02-11T21:21:56.534Z,8.50
2024-02-11T21:26:59.984Z,8.40
2024-02-11T21:32:03.482Z,8.40
2024-02-11T21:37:08.717Z,8.40
2024-02-11T21:42:12.848Z,8.30
2024-02-11T21:47:17.769Z,8.20
2024-02-11T21:52:21.834Z,8.20
2024-02-11T21:57:25.342Z,8.20
2024-02-11T22:02:28.769Z,8.20
2024-02-11T22:07:32.505Z,8.10
2024-02-11T22:12:37.545Z,8.10
2024-02-11T22:17:42.348Z,8.10
2024-02-11T22:22:46.371Z,8.10
2024-02-11T22:27:49.980Z,8.10
2024-02-11T22:32:53.540Z,8.20
2024-02-11T22:37:57.145Z,8.20
2024-02-11T22:43:00.677Z,8.20
2024-02-11T22:48:05.386Z,8.30
2024-02-11T22:53:08.826Z,8.30
2024-02-11T22:58:12.528Z,8.40
2024-02-11T23:03:19.458Z,8.40
2024-02-11T23:08:22.970Z,8.40
2024-02-11T23:13:26.748Z,8.40
2024-02-11T23:18:30.221Z,8.50
2024-02-11T23:23:33.851Z,8.50
2024-02-11T23:28:37.367Z,8.50
2024-02-11T23:33:42.544Z,8.50
2024-02-11T23:38:49.133Z,8.50
2024-02-11T23:43:53.834Z,8.50
2024-02-11T23:49:00.048Z,8.50
2024-02-11T23:54:04.524Z,8.50
2024-02-11T23:59:10.092Z,8.40
